sensor_id;sensor_type;location;lat;lon;timestamp;P1;durP1;ratioP1;P2;durP2;ratioP2
60851;SDS011;48553;50.766;2.900;2023-06-26T00:02:51;7.57;;;3.10;;
60851;SDS011;48553;50.766;2.900;2023-06-26T00:05:51;9.10;;;3.20;;
60851;SDS011;48553;50.766;2.900;2023-06-26T00:08:52;6.72;;;2.90;;
60851;SDS011;48553;50.766;2.900;2023-06-26T00:11:53;11.40;;;3.35;;
60851;SDS011;48553;50.766;2.900;2023-06-26T00:14:54;9.85;;;3.10;;
60851;SDS011;48553;50.766;2.900;2023-06-26T00:17:54;12.75;;;3.35;;
60851;SDS011;48553;50.766;2.900;2023-06-26T00:20:55;9.57;;;3.33;;
60851;SDS011;48553;50.766;2.900;2023-06-26T00:23:55;10.68;;;3.45;;
60851;SDS011;48553;50.766;2.900;2023-06-26T00:26:56;8.18;;;2.95;;
60851;SDS011;48553;50.766;2.900;2023-06-26T00:29:56;6.80;;;3.00;;
60851;SDS011;48553;50.766;2.900;2023-06-26T00:32:56;8.00;;;3.13;;
60851;SDS011;48553;50.766;2.900;2023-06-26T00:35:57;9.23;;;3.33;;
60851;SDS011;48553;50.766;2.900;2023-06-26T00:38:58;8.90;;;3.00;;
60851;SDS011;48553;50.766;2.900;2023-06-26T00:41:59;13.73;;;3.35;;
60851;SDS011;48553;50.766;2.900;2023-06-26T00:44:59;9.80;;;3.20;;
60851;SDS011;48553;50.766;2.900;2023-06-26T00:47:59;10.75;;;3.30;;
60851;SDS011;48553;50.766;2.900;2023-06-26T00:51:01;10.18;;;3.28;;
60851;SDS011;48553;50.766;2.900;2023-06-26T00:54:01;9.88;;;3.00;;
60851;SDS011;48553;50.766;2.900;2023-06-26T00:57:02;11.25;;;3.45;;
60851;SDS011;48553;50.766;2.900;2023-06-26T01:00:03;10.10;;;3.03;;
60851;SDS011;48553;50.766;2.900;2023-06-26T01:03:04;10.55;;;3.13;;
60851;SDS011;48553;50.766;2.900;2023-06-26T01:06:04;12.65;;;3.53;;
60851;SDS011;48553;50.766;2.900;2023-06-26T01:09:05;11.52;;;3.20;;
60851;SDS011;48553;50.766;2.900;2023-06-26T01:12:06;10.65;;;3.00;;
60851;SDS011;48553;50.766;2.900;2023-06-26T01:15:07;9.27;;;3.10;;
60851;SDS011;48553;50.766;2.900;2023-06-26T01:18:08;8.45;;;3.33;;
60851;SDS011;48553;50.766;2.900;2023-06-26T01:21:08;11.38;;;3.70;;
60851;SDS011;48553;50.766;2.900;2023-06-26T01:24:16;13.88;;;3.85;;
60851;SDS011;48553;50.766;2.900;2023-06-26T01:27:21;11.50;;;3.35;;
60851;SDS011;48553;50.766;2.900;2023-06-26T01:30:22;16.13;;;3.63;;
60851;SDS011;48553;50.766;2.900;2023-06-26T01:33:24;9.40;;;3.40;;
60851;SDS011;48553;50.766;2.900;2023-06-26T01:36:24;12.48;;;3.60;;
60851;SDS011;48553;50.766;2.900;2023-06-26T01:39:25;10.60;;;3.53;;
60851;SDS011;48553;50.766;2.900;2023-06-26T01:42:25;9.82;;;3.38;;
60851;SDS011;48553;50.766;2.900;2023-06-26T01:45:27;9.48;;;3.33;;
60851;SDS011;48553;50.766;2.900;2023-06-26T01:48:59;13.10;;;3.92;;
60851;SDS011;48553;50.766;2.900;2023-06-26T01:52:02;12.88;;;3.55;;
60851;SDS011;48553;50.766;2.900;2023-06-26T01:55:16;11.43;;;3.53;;
60851;SDS011;48553;50.766;2.900;2023-06-26T01:58:22;15.38;;;3.92;;
60851;SDS011;48553;50.766;2.900;2023-06-26T02:01:25;12.43;;;3.50;;
60851;SDS011;48553;50.766;2.900;2023-06-26T02:04:25;12.35;;;3.50;;
60851;SDS011;48553;50.766;2.900;2023-06-26T02:07:26;13.55;;;3.92;;
60851;SDS011;48553;50.766;2.900;2023-06-26T02:10:26;14.43;;;3.78;;
60851;SDS011;48553;50.766;2.900;2023-06-26T02:13:27;12.20;;;3.40;;
60851;SDS011;48553;50.766;2.900;2023-06-26T02:16:27;16.83;;;3.85;;
60851;SDS011;48553;50.766;2.900;2023-06-26T02:19:27;13.98;;;3.58;;
60851;SDS011;48553;50.766;2.900;2023-06-26T02:22:28;12.73;;;3.78;;
60851;SDS011;48553;50.766;2.900;2023-06-26T02:25:28;11.93;;;3.15;;
60851;SDS011;48553;50.766;2.900;2023-06-26T02:28:29;10.23;;;3.08;;
60851;SDS011;48553;50.766;2.900;2023-06-26T02:31:31;13.13;;;3.08;;
60851;SDS011;48553;50.766;2.900;2023-06-26T02:34:31;12.00;;;3.35;;
60851;SDS011;48553;50.766;2.900;2023-06-26T02:37:32;14.48;;;3.25;;
60851;SDS011;48553;50.766;2.900;2023-06-26T02:40:32;13.70;;;3.35;;
60851;SDS011;48553;50.766;2.900;2023-06-26T02:43:33;12.10;;;3.20;;
60851;SDS011;48553;50.766;2.900;2023-06-26T02:46:33;11.27;;;3.30;;
60851;SDS011;48553;50.766;2.900;2023-06-26T02:49:34;11.55;;;2.65;;
60851;SDS011;48553;50.766;2.900;2023-06-26T02:52:34;14.35;;;3.30;;
60851;SDS011;48553;50.766;2.900;2023-06-26T02:55:34;11.13;;;2.85;;
60851;SDS011;48553;50.766;2.900;2023-06-26T02:58:35;12.07;;;2.70;;
60851;SDS011;48553;50.766;2.900;2023-06-26T03:01:35;12.45;;;3.00;;
60851;SDS011;48553;50.766;2.900;2023-06-26T03:04:36;10.07;;;2.45;;
60851;SDS011;48553;50.766;2.900;2023-06-26T03:07:36;12.90;;;2.85;;
60851;SDS011;48553;50.766;2.900;2023-06-26T03:10:36;8.73;;;2.30;;
60851;SDS011;48553;50.766;2.900;2023-06-26T03:13:37;9.48;;;2.70;;
60851;SDS011;48553;50.766;2.900;2023-06-26T03:16:37;10.75;;;2.78;;
60851;SDS011;48553;50.766;2.900;2023-06-26T03:19:38;10.60;;;2.67;;
60851;SDS011;48553;50.766;2.900;2023-06-26T03:22:38;9.57;;;2.50;;
60851;SDS011;48553;50.766;2.900;2023-06-26T03:25:38;9.63;;;2.67;;
60851;SDS011;48553;50.766;2.900;2023-06-26T03:28:39;8.23;;;1.92;;
60851;SDS011;48553;50.766;2.900;2023-06-26T03:31:39;9.75;;;2.13;;
60851;SDS011;48553;50.766;2.900;2023-06-26T03:34:40;9.85;;;2.17;;
60851;SDS011;48553;50.766;2.900;2023-06-26T03:37:40;10.13;;;2.10;;
60851;SDS011;48553;50.766;2.900;2023-06-26T03:40:40;7.88;;;2.05;;
60851;SDS011;48553;50.766;2.900;2023-06-26T03:43:41;9.75;;;2.05;;
60851;SDS011;48553;50.766;2.900;2023-06-26T03:46:41;9.18;;;2.20;;
60851;SDS011;48553;50.766;2.900;2023-06-26T03:49:42;10.65;;;2.22;;
60851;SDS011;48553;50.766;2.900;2023-06-26T03:52:42;7.38;;;2.17;;
60851;SDS011;48553;50.766;2.900;2023-06-26T03:55:42;9.25;;;1.80;;
60851;SDS011;48553;50.766;2.900;2023-06-26T03:58:43;6.55;;;2.15;;
60851;SDS011;48553;50.766;2.900;2023-06-26T04:01:43;9.25;;;1.98;;
60851;SDS011;48553;50.766;2.900;2023-06-26T04:04:44;6.38;;;1.58;;
60851;SDS011;48553;50.766;2.900;2023-06-26T04:07:44;5.00;;;1.60;;
60851;SDS011;48553;50.766;2.900;2023-06-26T04:10:45;9.15;;;1.80;;
60851;SDS011;48553;50.766;2.900;2023-06-26T04:13:45;5.85;;;1.50;;
60851;SDS011;48553;50.766;2.900;2023-06-26T04:16:46;6.93;;;1.58;;
60851;SDS011;48553;50.766;2.900;2023-06-26T04:19:46;5.25;;;1.33;;
60851;SDS011;48553;50.766;2.900;2023-06-26T04:22:46;4.20;;;1.20;;
60851;SDS011;48553;50.766;2.900;2023-06-26T04:25:47;4.93;;;1.35;;
60851;SDS011;48553;50.766;2.900;2023-06-26T04:28:47;6.40;;;1.42;;
60851;SDS011;48553;50.766;2.900;2023-06-26T04:31:48;5.28;;;1.20;;
60851;SDS011;48553;50.766;2.900;2023-06-26T04:34:48;5.10;;;1.38;;
60851;SDS011;48553;50.766;2.900;2023-06-26T04:37:49;4.35;;;1.20;;
60851;SDS011;48553;50.766;2.900;2023-06-26T04:40:49;6.45;;;1.30;;
60851;SDS011;48553;50.766;2.900;2023-06-26T04:43:49;5.70;;;1.25;;
60851;SDS011;48553;50.766;2.900;2023-06-26T04:46:50;6.88;;;1.20;;
60851;SDS011;48553;50.766;2.900;2023-06-26T04:49:51;4.30;;;1.20;;
60851;SDS011;48553;50.766;2.900;2023-06-26T04:52:52;5.15;;;0.98;;
60851;SDS011;48553;50.766;2.900;2023-06-26T04:55:52;4.53;;;1.17;;
60851;SDS011;48553;50.766;2.900;2023-06-26T04:58:53;6.32;;;1.48;;
60851;SDS011;48553;50.766;2.900;2023-06-26T05:01:54;4.70;;;1.27;;
60851;SDS011;48553;50.766;2.900;2023-06-26T05:04:54;2.90;;;1.05;;
60851;SDS011;48553;50.766;2.900;2023-06-26T05:07:55;4.22;;;0.93;;
60851;SDS011;48553;50.766;2.900;2023-06-26T05:10:56;4.28;;;0.95;;
60851;SDS011;48553;50.766;2.900;2023-06-26T05:13:59;3.58;;;1.02;;
60851;SDS011;48553;50.766;2.900;2023-06-26T05:16:59;4.47;;;1.10;;
60851;SDS011;48553;50.766;2.900;2023-06-26T05:20:00;5.72;;;1.10;;
60851;SDS011;48553;50.766;2.900;2023-06-26T05:23:01;4.82;;;1.10;;
60851;SDS011;48553;50.766;2.900;2023-06-26T05:26:02;3.38;;;1.00;;
60851;SDS011;48553;50.766;2.900;2023-06-26T05:29:03;4.78;;;0.93;;
60851;SDS011;48553;50.766;2.900;2023-06-26T05:32:04;3.85;;;1.10;;
60851;SDS011;48553;50.766;2.900;2023-06-26T05:35:05;6.07;;;0.90;;
60851;SDS011;48553;50.766;2.900;2023-06-26T05:38:06;3.42;;;0.95;;
60851;SDS011;48553;50.766;2.900;2023-06-26T05:41:07;4.43;;;0.90;;
60851;SDS011;48553;50.766;2.900;2023-06-26T05:44:08;4.15;;;1.00;;
60851;SDS011;48553;50.766;2.900;2023-06-26T05:47:08;2.78;;;0.90;;
60851;SDS011;48553;50.766;2.900;2023-06-26T05:50:09;2.63;;;1.00;;
60851;SDS011;48553;50.766;2.900;2023-06-26T05:53:10;3.47;;;0.93;;
60851;SDS011;48553;50.766;2.900;2023-06-26T05:56:11;3.38;;;1.05;;
60851;SDS011;48553;50.766;2.900;2023-06-26T05:59:11;2.47;;;0.98;;
60851;SDS011;48553;50.766;2.900;2023-06-26T06:02:12;4.93;;;1.10;;
60851;SDS011;48553;50.766;2.900;2023-06-26T06:05:13;4.68;;;1.02;;
60851;SDS011;48553;50.766;2.900;2023-06-26T06:08:13;3.78;;;0.95;;
60851;SDS011;48553;50.766;2.900;2023-06-26T06:11:13;4.85;;;1.00;;
60851;SDS011;48553;50.766;2.900;2023-06-26T06:14:15;3.03;;;1.00;;
60851;SDS011;48553;50.766;2.900;2023-06-26T06:17:15;4.03;;;1.10;;
60851;SDS011;48553;50.766;2.900;2023-06-26T06:20:16;3.97;;;0.95;;
60851;SDS011;48553;50.766;2.900;2023-06-26T06:23:19;4.40;;;1.00;;
60851;SDS011;48553;50.766;2.900;2023-06-26T06:26:19;3.67;;;1.00;;
60851;SDS011;48553;50.766;2.900;2023-06-26T06:29:20;4.32;;;1.00;;
60851;SDS011;48553;50.766;2.900;2023-06-26T06:32:20;3.88;;;1.20;;
60851;SDS011;48553;50.766;2.900;2023-06-26T06:35:21;4.47;;;1.40;;
60851;SDS011;48553;50.766;2.900;2023-06-26T06:38:21;6.15;;;1.05;;
60851;SDS011;48553;50.766;2.900;2023-06-26T06:41:22;4.60;;;1.25;;
60851;SDS011;48553;50.766;2.900;2023-06-26T06:44:22;3.63;;;1.00;;
60851;SDS011;48553;50.766;2.900;2023-06-26T06:47:22;5.45;;;1.10;;
60851;SDS011;48553;50.766;2.900;2023-06-26T06:50:23;5.05;;;1.20;;
60851;SDS011;48553;50.766;2.900;2023-06-26T06:53:23;3.28;;;1.00;;
60851;SDS011;48553;50.766;2.900;2023-06-26T06:56:24;4.68;;;1.20;;
60851;SDS011;48553;50.766;2.900;2023-06-26T06:59:24;4.03;;;1.30;;
60851;SDS011;48553;50.766;2.900;2023-06-26T07:02:25;3.50;;;1.20;;
60851;SDS011;48553;50.766;2.900;2023-06-26T07:05:25;7.95;;;1.30;;
60851;SDS011;48553;50.766;2.900;2023-06-26T07:08:26;4.43;;;1.40;;
60851;SDS011;48553;50.766;2.900;2023-06-26T07:11:26;4.40;;;1.33;;
60851;SDS011;48553;50.766;2.900;2023-06-26T07:14:26;5.20;;;1.20;;
60851;SDS011;48553;50.766;2.900;2023-06-26T07:17:27;5.70;;;1.30;;
60851;SDS011;48553;50.766;2.900;2023-06-26T07:20:27;4.93;;;1.20;;
60851;SDS011;48553;50.766;2.900;2023-06-26T07:23:27;5.40;;;1.45;;
60851;SDS011;48553;50.766;2.900;2023-06-26T07:26:28;4.63;;;1.00;;
60851;SDS011;48553;50.766;2.900;2023-06-26T07:29:28;4.15;;;1.20;;
60851;SDS011;48553;50.766;2.900;2023-06-26T07:32:29;4.20;;;1.40;;
60851;SDS011;48553;50.766;2.900;2023-06-26T07:35:29;6.07;;;1.30;;
60851;SDS011;48553;50.766;2.900;2023-06-26T07:38:30;4.45;;;1.02;;
60851;SDS011;48553;50.766;2.900;2023-06-26T07:41:30;3.78;;;1.20;;
60851;SDS011;48553;50.766;2.900;2023-06-26T07:44:31;4.63;;;1.20;;
60851;SDS011;48553;50.766;2.900;2023-06-26T07:47:31;4.35;;;1.20;;
60851;SDS011;48553;50.766;2.900;2023-06-26T07:50:32;3.78;;;1.20;;
60851;SDS011;48553;50.766;2.900;2023-06-26T07:53:32;4.07;;;1.25;;
60851;SDS011;48553;50.766;2.900;2023-06-26T07:56:51;4.93;;;1.23;;
60851;SDS011;48553;50.766;2.900;2023-06-26T07:59:58;4.68;;;1.20;;
60851;SDS011;48553;50.766;2.900;2023-06-26T08:02:59;3.92;;;1.10;;
60851;SDS011;48553;50.766;2.900;2023-06-26T08:05:59;4.47;;;1.30;;
60851;SDS011;48553;50.766;2.900;2023-06-26T08:08:59;3.92;;;1.20;;
60851;SDS011;48553;50.766;2.900;2023-06-26T08:12:00;4.93;;;1.25;;
60851;SDS011;48553;50.766;2.900;2023-06-26T08:15:00;3.92;;;1.20;;
60851;SDS011;48553;50.766;2.900;2023-06-26T08:18:02;4.30;;;1.30;;
60851;SDS011;48553;50.766;2.900;2023-06-26T08:21:03;5.53;;;1.42;;
60851;SDS011;48553;50.766;2.900;2023-06-26T08:24:03;4.18;;;1.10;;
60851;SDS011;48553;50.766;2.900;2023-06-26T08:27:04;2.50;;;1.02;;
60851;SDS011;48553;50.766;2.900;2023-06-26T08:30:06;4.22;;;1.30;;
60851;SDS011;48553;50.766;2.900;2023-06-26T08:33:06;4.03;;;1.10;;
60851;SDS011;48553;50.766;2.900;2023-06-26T08:36:12;5.07;;;1.10;;
60851;SDS011;48553;50.766;2.900;2023-06-26T08:39:12;4.57;;;1.10;;
60851;SDS011;48553;50.766;2.900;2023-06-26T08:42:13;4.28;;;1.30;;
60851;SDS011;48553;50.766;2.900;2023-06-26T08:45:13;6.97;;;1.55;;
60851;SDS011;48553;50.766;2.900;2023-06-26T08:48:14;5.95;;;1.30;;
60851;SDS011;48553;50.766;2.900;2023-06-26T08:51:16;6.22;;;1.30;;
60851;SDS011;48553;50.766;2.900;2023-06-26T08:54:18;4.18;;;1.10;;
60851;SDS011;48553;50.766;2.900;2023-06-26T08:57:28;4.05;;;1.40;;
60851;SDS011;48553;50.766;2.900;2023-06-26T09:00:31;6.22;;;1.40;;
60851;SDS011;48553;50.766;2.900;2023-06-26T09:03:32;2.90;;;1.08;;
60851;SDS011;48553;50.766;2.900;2023-06-26T09:06:33;4.82;;;1.23;;
60851;SDS011;48553;50.766;2.900;2023-06-26T09:09:34;4.13;;;1.20;;
60851;SDS011;48553;50.766;2.900;2023-06-26T09:12:34;4.25;;;1.33;;
60851;SDS011;48553;50.766;2.900;2023-06-26T09:15:38;5.03;;;1.40;;
60851;SDS011;48553;50.766;2.900;2023-06-26T09:21:45;4.20;;;1.25;;
60851;SDS011;48553;50.766;2.900;2023-06-26T09:24:51;3.90;;;1.20;;
60851;SDS011;48553;50.766;2.900;2023-06-26T09:27:51;5.82;;;1.38;;
60851;SDS011;48553;50.766;2.900;2023-06-26T09:30:53;3.25;;;1.10;;
60851;SDS011;48553;50.766;2.900;2023-06-26T09:33:55;4.53;;;1.27;;
60851;SDS011;48553;50.766;2.900;2023-06-26T09:36:59;5.93;;;1.30;;
60851;SDS011;48553;50.766;2.900;2023-06-26T09:40:03;2.13;;;1.10;;
60851;SDS011;48553;50.766;2.900;2023-06-26T09:43:09;5.43;;;1.50;;
60851;SDS011;48553;50.766;2.900;2023-06-26T09:49:29;3.75;;;1.33;;
60851;SDS011;48553;50.766;2.900;2023-06-26T09:52:31;4.55;;;1.30;;
60851;SDS011;48553;50.766;2.900;2023-06-26T09:55:34;4.20;;;1.13;;
60851;SDS011;48553;50.766;2.900;2023-06-26T09:58:36;4.53;;;1.10;;
60851;SDS011;48553;50.766;2.900;2023-06-26T10:01:41;4.93;;;1.20;;
60851;SDS011;48553;50.766;2.900;2023-06-26T10:04:45;3.45;;;1.08;;
60851;SDS011;48553;50.766;2.900;2023-06-26T10:07:45;6.43;;;1.35;;
60851;SDS011;48553;50.766;2.900;2023-06-26T10:10:47;2.83;;;1.10;;
60851;SDS011;48553;50.766;2.900;2023-06-26T10:13:49;4.95;;;1.33;;
60851;SDS011;48553;50.766;2.900;2023-06-26T10:16:51;5.53;;;1.20;;
60851;SDS011;48553;50.766;2.900;2023-06-26T10:19:51;4.85;;;1.20;;
60851;SDS011;48553;50.766;2.900;2023-06-26T10:22:54;3.25;;;1.13;;
60851;SDS011;48553;50.766;2.900;2023-06-26T10:25:58;3.60;;;1.33;;
60851;SDS011;48553;50.766;2.900;2023-06-26T10:29:00;4.38;;;1.25;;
60851;SDS011;48553;50.766;2.900;2023-06-26T10:32:02;3.58;;;1.20;;
60851;SDS011;48553;50.766;2.900;2023-06-26T10:35:06;2.67;;;0.93;;
60851;SDS011;48553;50.766;2.900;2023-06-26T10:38:07;4.13;;;1.27;;
60851;SDS011;48553;50.766;2.900;2023-06-26T10:41:11;3.78;;;1.23;;
60851;SDS011;48553;50.766;2.900;2023-06-26T10:44:16;4.25;;;0.95;;
60851;SDS011;48553;50.766;2.900;2023-06-26T10:47:29;3.10;;;1.05;;
60851;SDS011;48553;50.766;2.900;2023-06-26T10:50:36;2.78;;;0.95;;
60851;SDS011;48553;50.766;2.900;2023-06-26T10:53:40;5.32;;;1.10;;
60851;SDS011;48553;50.766;2.900;2023-06-26T10:56:41;3.35;;;1.13;;
60851;SDS011;48553;50.766;2.900;2023-06-26T10:59:48;2.72;;;0.98;;
60851;SDS011;48553;50.766;2.900;2023-06-26T11:02:50;4.00;;;0.93;;
60851;SDS011;48553;50.766;2.900;2023-06-26T11:06:08;3.55;;;0.95;;
60851;SDS011;48553;50.766;2.900;2023-06-26T11:09:17;2.92;;;1.00;;
60851;SDS011;48553;50.766;2.900;2023-06-26T11:12:36;3.33;;;0.80;;
60851;SDS011;48553;50.766;2.900;2023-06-26T11:15:39;1.83;;;0.70;;
60851;SDS011;48553;50.766;2.900;2023-06-26T11:18:42;3.75;;;1.00;;
60851;SDS011;48553;50.766;2.900;2023-06-26T11:21:43;1.60;;;0.60;;
60851;SDS011;48553;50.766;2.900;2023-06-26T11:24:43;2.75;;;0.90;;
60851;SDS011;48553;50.766;2.900;2023-06-26T11:27:44;3.20;;;0.90;;
60851;SDS011;48553;50.766;2.900;2023-06-26T11:30:44;5.30;;;0.85;;
60851;SDS011;48553;50.766;2.900;2023-06-26T11:33:45;3.22;;;0.80;;
60851;SDS011;48553;50.766;2.900;2023-06-26T11:36:46;2.90;;;1.00;;
60851;SDS011;48553;50.766;2.900;2023-06-26T11:39:47;3.20;;;0.80;;
60851;SDS011;48553;50.766;2.900;2023-06-26T11:42:48;3.25;;;0.70;;
60851;SDS011;48553;50.766;2.900;2023-06-26T11:45:49;3.53;;;0.70;;
60851;SDS011;48553;50.766;2.900;2023-06-26T11:48:49;2.67;;;0.70;;
60851;SDS011;48553;50.766;2.900;2023-06-26T11:51:50;1.38;;;0.68;;
60851;SDS011;48553;50.766;2.900;2023-06-26T11:54:51;2.47;;;0.80;;
60851;SDS011;48553;50.766;2.900;2023-06-26T11:57:54;3.05;;;0.80;;
60851;SDS011;48553;50.766;2.900;2023-06-26T12:00:56;3.50;;;1.00;;
60851;SDS011;48553;50.766;2.900;2023-06-26T12:03:58;3.55;;;0.80;;
60851;SDS011;48553;50.766;2.900;2023-06-26T12:10:04;2.70;;;0.80;;
60851;SDS011;48553;50.766;2.900;2023-06-26T12:13:07;2.28;;;0.75;;
60851;SDS011;48553;50.766;2.900;2023-06-26T12:16:08;3.78;;;0.90;;
60851;SDS011;48553;50.766;2.900;2023-06-26T12:19:08;2.08;;;0.75;;
60851;SDS011;48553;50.766;2.900;2023-06-26T12:22:09;2.90;;;0.90;;
60851;SDS011;48553;50.766;2.900;2023-06-26T12:25:10;3.90;;;0.80;;
60851;SDS011;48553;50.766;2.900;2023-06-26T12:28:15;3.72;;;0.80;;
60851;SDS011;48553;50.766;2.900;2023-06-26T12:31:20;4.60;;;1.00;;
60851;SDS011;48553;50.766;2.900;2023-06-26T12:34:28;3.40;;;1.00;;
60851;SDS011;48553;50.766;2.900;2023-06-26T12:37:36;2.80;;;0.70;;
60851;SDS011;48553;50.766;2.900;2023-06-26T12:40:46;3.00;;;0.90;;
60851;SDS011;48553;50.766;2.900;2023-06-26T12:43:46;4.22;;;0.88;;
60851;SDS011;48553;50.766;2.900;2023-06-26T12:46:47;2.60;;;0.88;;
60851;SDS011;48553;50.766;2.900;2023-06-26T12:49:54;3.85;;;0.90;;
60851;SDS011;48553;50.766;2.900;2023-06-26T12:52:54;4.38;;;1.05;;
60851;SDS011;48553;50.766;2.900;2023-06-26T12:55:55;2.65;;;0.82;;
60851;SDS011;48553;50.766;2.900;2023-06-26T12:58:56;2.72;;;0.98;;
60851;SDS011;48553;50.766;2.900;2023-06-26T13:01:57;3.47;;;0.90;;
60851;SDS011;48553;50.766;2.900;2023-06-26T13:04:58;6.03;;;1.00;;
60851;SDS011;48553;50.766;2.900;2023-06-26T13:07:58;3.03;;;0.90;;
60851;SDS011;48553;50.766;2.900;2023-06-26T13:11:00;2.50;;;0.98;;
60851;SDS011;48553;50.766;2.900;2023-06-26T13:14:00;3.08;;;1.00;;
60851;SDS011;48553;50.766;2.900;2023-06-26T13:17:01;2.88;;;0.80;;
60851;SDS011;48553;50.766;2.900;2023-06-26T13:20:02;4.15;;;0.95;;
60851;SDS011;48553;50.766;2.900;2023-06-26T13:23:04;3.50;;;0.70;;
60851;SDS011;48553;50.766;2.900;2023-06-26T13:26:05;3.35;;;0.85;;
60851;SDS011;48553;50.766;2.900;2023-06-26T13:29:06;4.75;;;1.08;;
60851;SDS011;48553;50.766;2.900;2023-06-26T13:32:07;3.72;;;0.95;;
60851;SDS011;48553;50.766;2.900;2023-06-26T13:35:08;3.53;;;0.85;;
60851;SDS011;48553;50.766;2.900;2023-06-26T13:38:09;2.90;;;0.75;;
60851;SDS011;48553;50.766;2.900;2023-06-26T13:41:10;2.10;;;0.80;;
60851;SDS011;48553;50.766;2.900;2023-06-26T13:44:10;3.35;;;1.08;;
60851;SDS011;48553;50.766;2.900;2023-06-26T13:47:12;3.72;;;1.00;;
60851;SDS011;48553;50.766;2.900;2023-06-26T13:50:14;2.40;;;0.90;;
60851;SDS011;48553;50.766;2.900;2023-06-26T13:53:14;3.15;;;1.10;;
60851;SDS011;48553;50.766;2.900;2023-06-26T13:56:15;2.47;;;0.80;;
60851;SDS011;48553;50.766;2.900;2023-06-26T13:59:15;2.03;;;0.90;;
60851;SDS011;48553;50.766;2.900;2023-06-26T14:02:15;3.80;;;0.90;;
60851;SDS011;48553;50.766;2.900;2023-06-26T14:05:16;2.67;;;0.90;;
60851;SDS011;48553;50.766;2.900;2023-06-26T14:08:18;4.30;;;0.98;;
60851;SDS011;48553;50.766;2.900;2023-06-26T14:11:18;4.15;;;1.10;;
60851;SDS011;48553;50.766;2.900;2023-06-26T14:14:19;3.63;;;1.08;;
60851;SDS011;48553;50.766;2.900;2023-06-26T14:17:19;3.90;;;0.90;;
60851;SDS011;48553;50.766;2.900;2023-06-26T14:20:20;3.67;;;0.85;;
60851;SDS011;48553;50.766;2.900;2023-06-26T14:23:22;2.58;;;0.85;;
60851;SDS011;48553;50.766;2.900;2023-06-26T14:26:22;3.42;;;1.20;;
60851;SDS011;48553;50.766;2.900;2023-06-26T14:29:23;3.92;;;1.17;;
60851;SDS011;48553;50.766;2.900;2023-06-26T14:32:23;3.38;;;1.10;;
60851;SDS011;48553;50.766;2.900;2023-06-26T14:35:24;6.57;;;1.23;;
60851;SDS011;48553;50.766;2.900;2023-06-26T14:38:24;3.38;;;1.00;;
60851;SDS011;48553;50.766;2.900;2023-06-26T14:41:24;5.20;;;1.05;;
60851;SDS011;48553;50.766;2.900;2023-06-26T14:44:25;3.75;;;0.93;;
60851;SDS011;48553;50.766;2.900;2023-06-26T14:47:25;4.32;;;1.00;;
60851;SDS011;48553;50.766;2.900;2023-06-26T14:50:26;3.38;;;1.00;;
60851;SDS011;48553;50.766;2.900;2023-06-26T14:53:26;3.47;;;0.90;;
60851;SDS011;48553;50.766;2.900;2023-06-26T14:56:26;6.80;;;1.33;;
60851;SDS011;48553;50.766;2.900;2023-06-26T14:59:27;3.55;;;1.13;;
60851;SDS011;48553;50.766;2.900;2023-06-26T15:02:27;7.20;;;1.25;;
60851;SDS011;48553;50.766;2.900;2023-06-26T15:05:28;4.05;;;1.20;;
60851;SDS011;48553;50.766;2.900;2023-06-26T15:08:28;5.78;;;1.10;;
60851;SDS011;48553;50.766;2.900;2023-06-26T15:11:29;4.20;;;1.20;;
60851;SDS011;48553;50.766;2.900;2023-06-26T15:14:29;5.97;;;1.42;;
60851;SDS011;48553;50.766;2.900;2023-06-26T15:17:29;4.88;;;1.20;;
60851;SDS011;48553;50.766;2.900;2023-06-26T15:20:30;7.40;;;1.38;;
60851;SDS011;48553;50.766;2.900;2023-06-26T15:23:30;5.95;;;1.20;;
60851;SDS011;48553;50.766;2.900;2023-06-26T15:26:31;5.85;;;1.27;;
60851;SDS011;48553;50.766;2.900;2023-06-26T15:29:31;2.58;;;1.10;;
60851;SDS011;48553;50.766;2.900;2023-06-26T15:32:31;4.18;;;1.20;;
60851;SDS011;48553;50.766;2.900;2023-06-26T15:35:32;4.25;;;1.05;;
60851;SDS011;48553;50.766;2.900;2023-06-26T15:38:32;6.88;;;1.30;;
60851;SDS011;48553;50.766;2.900;2023-06-26T15:41:33;6.13;;;1.20;;
60851;SDS011;48553;50.766;2.900;2023-06-26T15:44:37;5.57;;;1.47;;
60851;SDS011;48553;50.766;2.900;2023-06-26T15:47:37;4.50;;;1.30;;
60851;SDS011;48553;50.766;2.900;2023-06-26T15:50:38;6.28;;;1.30;;
60851;SDS011;48553;50.766;2.900;2023-06-26T15:53:38;5.47;;;1.13;;
60851;SDS011;48553;50.766;2.900;2023-06-26T15:56:39;6.85;;;1.52;;
60851;SDS011;48553;50.766;2.900;2023-06-26T15:59:39;6.40;;;1.55;;
60851;SDS011;48553;50.766;2.900;2023-06-26T16:02:40;3.63;;;1.50;;
60851;SDS011;48553;50.766;2.900;2023-06-26T16:05:41;4.45;;;1.70;;
60851;SDS011;48553;50.766;2.900;2023-06-26T16:08:42;5.90;;;1.40;;
60851;SDS011;48553;50.766;2.900;2023-06-26T16:11:42;7.88;;;1.50;;
60851;SDS011;48553;50.766;2.900;2023-06-26T16:14:42;5.85;;;1.50;;
60851;SDS011;48553;50.766;2.900;2023-06-26T16:17:43;6.75;;;1.30;;
60851;SDS011;48553;50.766;2.900;2023-06-26T16:20:43;3.65;;;1.20;;
60851;SDS011;48553;50.766;2.900;2023-06-26T16:23:44;5.35;;;1.38;;
60851;SDS011;48553;50.766;2.900;2023-06-26T16:26:44;6.20;;;1.58;;
60851;SDS011;48553;50.766;2.900;2023-06-26T16:29:45;5.25;;;1.70;;
60851;SDS011;48553;50.766;2.900;2023-06-26T16:32:45;5.85;;;1.40;;
60851;SDS011;48553;50.766;2.900;2023-06-26T16:35:45;6.55;;;1.50;;
60851;SDS011;48553;50.766;2.900;2023-06-26T16:38:46;4.75;;;1.10;;
60851;SDS011;48553;50.766;2.900;2023-06-26T16:41:51;5.45;;;1.38;;
60851;SDS011;48553;50.766;2.900;2023-06-26T16:44:54;3.55;;;1.20;;
60851;SDS011;48553;50.766;2.900;2023-06-26T16:47:55;5.65;;;1.40;;
60851;SDS011;48553;50.766;2.900;2023-06-26T16:50:56;6.25;;;1.50;;
60851;SDS011;48553;50.766;2.900;2023-06-26T16:53:56;7.38;;;1.50;;
60851;SDS011;48553;50.766;2.900;2023-06-26T16:56:57;4.88;;;1.25;;
60851;SDS011;48553;50.766;2.900;2023-06-26T16:59:59;6.07;;;1.40;;
60851;SDS011;48553;50.766;2.900;2023-06-26T17:02:59;5.22;;;1.45;;
60851;SDS011;48553;50.766;2.900;2023-06-26T17:06:00;5.68;;;1.40;;
60851;SDS011;48553;50.766;2.900;2023-06-26T17:09:00;6.95;;;1.52;;
60851;SDS011;48553;50.766;2.900;2023-06-26T17:12:00;5.95;;;1.60;;
60851;SDS011;48553;50.766;2.900;2023-06-26T17:15:01;8.15;;;1.52;;
60851;SDS011;48553;50.766;2.900;2023-06-26T17:18:03;6.65;;;1.55;;
60851;SDS011;48553;50.766;2.900;2023-06-26T17:21:04;9.10;;;1.55;;
60851;SDS011;48553;50.766;2.900;2023-06-26T17:24:04;5.60;;;1.40;;
60851;SDS011;48553;50.766;2.900;2023-06-26T17:27:12;6.78;;;1.58;;
60851;SDS011;48553;50.766;2.900;2023-06-26T17:30:20;7.15;;;1.38;;
60851;SDS011;48553;50.766;2.900;2023-06-26T17:33:21;6.18;;;1.60;;
60851;SDS011;48553;50.766;2.900;2023-06-26T17:36:21;4.43;;;1.50;;
60851;SDS011;48553;50.766;2.900;2023-06-26T17:39:22;5.95;;;1.25;;
60851;SDS011;48553;50.766;2.900;2023-06-26T17:42:24;8.52;;;1.50;;
60851;SDS011;48553;50.766;2.900;2023-06-26T17:45:24;5.55;;;1.25;;
60851;SDS011;48553;50.766;2.900;2023-06-26T17:48:27;5.88;;;1.38;;
60851;SDS011;48553;50.766;2.900;2023-06-26T17:51:27;6.38;;;1.42;;
60851;SDS011;48553;50.766;2.900;2023-06-26T17:54:28;7.68;;;1.40;;
60851;SDS011;48553;50.766;2.900;2023-06-26T17:57:28;6.22;;;1.38;;
60851;SDS011;48553;50.766;2.900;2023-06-26T18:00:29;7.68;;;1.60;;
60851;SDS011;48553;50.766;2.900;2023-06-26T18:03:29;5.57;;;1.45;;
60851;SDS011;48553;50.766;2.900;2023-06-26T18:06:29;4.78;;;1.40;;
60851;SDS011;48553;50.766;2.900;2023-06-26T18:09:30;6.43;;;1.55;;
60851;SDS011;48553;50.766;2.900;2023-06-26T18:12:31;7.35;;;1.30;;
60851;SDS011;48553;50.766;2.900;2023-06-26T18:15:31;6.63;;;1.42;;
60851;SDS011;48553;50.766;2.900;2023-06-26T18:18:31;5.18;;;1.52;;
60851;SDS011;48553;50.766;2.900;2023-06-26T18:21:32;5.18;;;1.38;;